sensor_id;sensor_type;location;lat;lon;timestamp;P1;durP1;ratioP1;P2;durP2;ratioP2
8159;SDS011;27404;52.398;9.646;2022-12-10T00:01:07;55.77;;;20.30;;
8159;SDS011;27404;52.398;9.646;2022-12-10T00:03:35;52.07;;;19.20;;
8159;SDS011;27404;52.398;9.646;2022-12-10T00:06:01;57.13;;;19.90;;
8159;SDS011;27404;52.398;9.646;2022-12-10T00:08:28;54.13;;;19.40;;
8159;SDS011;27404;52.398;9.646;2022-12-10T00:10:54;58.90;;;21.13;;
8159;SDS011;27404;52.398;9.646;2022-12-10T00:13:20;67.20;;;23.03;;
8159;SDS011;27404;52.398;9.646;2022-12-10T00:15:45;63.77;;;22.30;;
8159;SDS011;27404;52.398;9.646;2022-12-10T00:18:11;65.47;;;21.90;;
8159;SDS011;27404;52.398;9.646;2022-12-10T00:20:37;79.93;;;23.87;;
8159;SDS011;27404;52.398;9.646;2022-12-10T00:23:03;68.73;;;22.70;;
8159;SDS011;27404;52.398;9.646;2022-12-10T00:25:29;71.73;;;22.23;;
8159;SDS011;27404;52.398;9.646;2022-12-10T00:27:56;73.07;;;23.13;;
8159;SDS011;27404;52.398;9.646;2022-12-10T00:30:21;73.30;;;23.17;;
8159;SDS011;27404;52.398;9.646;2022-12-10T00:32:47;71.97;;;24.73;;
8159;SDS011;27404;52.398;9.646;2022-12-10T00:35:12;81.37;;;24.37;;
8159;SDS011;27404;52.398;9.646;2022-12-10T00:37:38;68.00;;;22.97;;
8159;SDS011;27404;52.398;9.646;2022-12-10T00:40:04;73.37;;;24.03;;
8159;SDS011;27404;52.398;9.646;2022-12-10T00:42:29;73.33;;;22.70;;
8159;SDS011;27404;52.398;9.646;2022-12-10T00:44:55;72.87;;;23.93;;
8159;SDS011;27404;52.398;9.646;2022-12-10T00:47:20;68.47;;;22.93;;
8159;SDS011;27404;52.398;9.646;2022-12-10T00:49:46;64.97;;;20.77;;
8159;SDS011;27404;52.398;9.646;2022-12-10T00:52:11;65.03;;;24.00;;
8159;SDS011;27404;52.398;9.646;2022-12-10T00:54:37;66.67;;;22.07;;
8159;SDS011;27404;52.398;9.646;2022-12-10T00:57:02;66.80;;;22.90;;
8159;SDS011;27404;52.398;9.646;2022-12-10T00:59:27;68.00;;;23.07;;
8159;SDS011;27404;52.398;9.646;2022-12-10T01:01:53;71.43;;;22.87;;
8159;SDS011;27404;52.398;9.646;2022-12-10T01:04:18;75.00;;;22.87;;
8159;SDS011;27404;52.398;9.646;2022-12-10T01:06:47;72.87;;;23.33;;
8159;SDS011;27404;52.398;9.646;2022-12-10T01:09:18;68.10;;;21.00;;
8159;SDS011;27404;52.398;9.646;2022-12-10T01:11:49;68.73;;;22.20;;
8159;SDS011;27404;52.398;9.646;2022-12-10T01:14:17;82.83;;;24.20;;
8159;SDS011;27404;52.398;9.646;2022-12-10T01:16:46;65.57;;;20.47;;
8159;SDS011;27404;52.398;9.646;2022-12-10T01:19:12;68.67;;;22.23;;
8159;SDS011;27404;52.398;9.646;2022-12-10T01:21:37;67.37;;;22.97;;
8159;SDS011;27404;52.398;9.646;2022-12-10T01:24:03;69.00;;;22.27;;
8159;SDS011;27404;52.398;9.646;2022-12-10T01:26:30;67.07;;;21.93;;
8159;SDS011;27404;52.398;9.646;2022-12-10T01:28:57;70.17;;;21.10;;
8159;SDS011;27404;52.398;9.646;2022-12-10T01:31:25;74.63;;;22.43;;
8159;SDS011;27404;52.398;9.646;2022-12-10T01:33:55;80.80;;;23.93;;
8159;SDS011;27404;52.398;9.646;2022-12-10T01:36:24;75.90;;;24.23;;
8159;SDS011;27404;52.398;9.646;2022-12-10T01:38:54;78.77;;;23.17;;
8159;SDS011;27404;52.398;9.646;2022-12-10T01:41:28;67.67;;;21.37;;
8159;SDS011;27404;52.398;9.646;2022-12-10T01:44:03;65.73;;;20.63;;
8159;SDS011;27404;52.398;9.646;2022-12-10T01:46:31;62.17;;;21.50;;
8159;SDS011;27404;52.398;9.646;2022-12-10T01:49:00;74.60;;;23.63;;
8159;SDS011;27404;52.398;9.646;2022-12-10T01:51:29;79.10;;;24.77;;
8159;SDS011;27404;52.398;9.646;2022-12-10T01:53:57;75.23;;;23.23;;
8159;SDS011;27404;52.398;9.646;2022-12-10T01:56:23;67.87;;;22.47;;
8159;SDS011;27404;52.398;9.646;2022-12-10T01:58:50;75.77;;;23.60;;
8159;SDS011;27404;52.398;9.646;2022-12-10T02:01:24;68.97;;;22.00;;
8159;SDS011;27404;52.398;9.646;2022-12-10T02:03:54;65.47;;;21.73;;
8159;SDS011;27404;52.398;9.646;2022-12-10T02:06:33;74.83;;;21.67;;
8159;SDS011;27404;52.398;9.646;2022-12-10T02:14:32;58.17;;;20.63;;
8159;SDS011;27404;52.398;9.646;2022-12-10T02:17:16;57.73;;;19.33;;
8159;SDS011;27404;52.398;9.646;2022-12-10T02:22:26;53.53;;;19.10;;
8159;SDS011;27404;52.398;9.646;2022-12-10T02:24:56;62.17;;;20.10;;
8159;SDS011;27404;52.398;9.646;2022-12-10T02:27:27;58.47;;;18.43;;
8159;SDS011;27404;52.398;9.646;2022-12-10T02:30:00;53.30;;;18.97;;
8159;SDS011;27404;52.398;9.646;2022-12-10T02:32:30;52.53;;;18.30;;
8159;SDS011;27404;52.398;9.646;2022-12-10T02:34:59;58.37;;;19.30;;
8159;SDS011;27404;52.398;9.646;2022-12-10T02:37:30;50.43;;;17.13;;
8159;SDS011;27404;52.398;9.646;2022-12-10T02:40:00;53.67;;;18.77;;
8159;SDS011;27404;52.398;9.646;2022-12-10T02:42:31;57.97;;;18.30;;
8159;SDS011;27404;52.398;9.646;2022-12-10T02:44:59;55.83;;;18.30;;
8159;SDS011;27404;52.398;9.646;2022-12-10T02:47:26;54.27;;;17.50;;
8159;SDS011;27404;52.398;9.646;2022-12-10T02:49:53;51.60;;;18.00;;
8159;SDS011;27404;52.398;9.646;2022-12-10T02:52:22;57.77;;;18.23;;
8159;SDS011;27404;52.398;9.646;2022-12-10T02:54:49;53.27;;;18.93;;
8159;SDS011;27404;52.398;9.646;2022-12-10T03:00:22;54.33;;;18.60;;
8159;SDS011;27404;52.398;9.646;2022-12-10T03:05:29;52.30;;;17.73;;
8159;SDS011;27404;52.398;9.646;2022-12-10T03:08:41;53.80;;;18.30;;
8159;SDS011;27404;52.398;9.646;2022-12-10T03:11:32;41.90;;;16.03;;
8159;SDS011;27404;52.398;9.646;2022-12-10T03:16:11;46.23;;;16.17;;
8159;SDS011;27404;52.398;9.646;2022-12-10T03:18:38;44.47;;;15.73;;
8159;SDS011;27404;52.398;9.646;2022-12-10T03:21:05;45.60;;;16.50;;
8159;SDS011;27404;52.398;9.646;2022-12-10T03:23:36;47.13;;;16.27;;
8159;SDS011;27404;52.398;9.646;2022-12-10T03:26:05;43.03;;;15.60;;
8159;SDS011;27404;52.398;9.646;2022-12-10T03:28:34;44.57;;;15.97;;
8159;SDS011;27404;52.398;9.646;2022-12-10T03:31:04;46.90;;;16.50;;
8159;SDS011;27404;52.398;9.646;2022-12-10T03:33:33;41.47;;;15.73;;
8159;SDS011;27404;52.398;9.646;2022-12-10T03:35:59;49.30;;;15.87;;
8159;SDS011;27404;52.398;9.646;2022-12-10T03:38:25;45.63;;;16.63;;
8159;SDS011;27404;52.398;9.646;2022-12-10T03:40:50;39.13;;;15.57;;
8159;SDS011;27404;52.398;9.646;2022-12-10T03:43:16;43.77;;;16.53;;
8159;SDS011;27404;52.398;9.646;2022-12-10T03:45:41;42.70;;;15.50;;
8159;SDS011;27404;52.398;9.646;2022-12-10T03:48:07;52.97;;;16.83;;
8159;SDS011;27404;52.398;9.646;2022-12-10T03:50:32;47.83;;;17.40;;
8159;SDS011;27404;52.398;9.646;2022-12-10T03:52:58;39.20;;;15.60;;
8159;SDS011;27404;52.398;9.646;2022-12-10T03:55:23;43.57;;;16.40;;
8159;SDS011;27404;52.398;9.646;2022-12-10T03:57:48;41.70;;;16.23;;
8159;SDS011;27404;52.398;9.646;2022-12-10T04:00:14;43.53;;;16.43;;
8159;SDS011;27404;52.398;9.646;2022-12-10T04:02:40;45.03;;;15.77;;
8159;SDS011;27404;52.398;9.646;2022-12-10T04:05:06;42.53;;;16.17;;
8159;SDS011;27404;52.398;9.646;2022-12-10T04:07:32;43.13;;;14.77;;
8159;SDS011;27404;52.398;9.646;2022-12-10T04:09:58;45.47;;;15.53;;
8159;SDS011;27404;52.398;9.646;2022-12-10T04:12:23;36.50;;;13.90;;
8159;SDS011;27404;52.398;9.646;2022-12-10T04:14:49;44.87;;;15.33;;
8159;SDS011;27404;52.398;9.646;2022-12-10T04:17:33;41.73;;;15.37;;
8159;SDS011;27404;52.398;9.646;2022-12-10T04:19:58;40.00;;;14.27;;
8159;SDS011;27404;52.398;9.646;2022-12-10T04:22:24;36.43;;;14.67;;
8159;SDS011;27404;52.398;9.646;2022-12-10T04:25:10;36.53;;;15.23;;
8159;SDS011;27404;52.398;9.646;2022-12-10T04:27:55;36.50;;;14.37;;
8159;SDS011;27404;52.398;9.646;2022-12-10T04:30:21;37.93;;;14.00;;
8159;SDS011;27404;52.398;9.646;2022-12-10T04:32:46;35.57;;;14.20;;
8159;SDS011;27404;52.398;9.646;2022-12-10T04:35:12;36.00;;;14.07;;
8159;SDS011;27404;52.398;9.646;2022-12-10T04:37:37;34.07;;;14.03;;
8159;SDS011;27404;52.398;9.646;2022-12-10T04:40:03;32.53;;;13.83;;
8159;SDS011;27404;52.398;9.646;2022-12-10T04:42:29;35.07;;;14.53;;
8159;SDS011;27404;52.398;9.646;2022-12-10T04:44:55;38.97;;;14.67;;
8159;SDS011;27404;52.398;9.646;2022-12-10T04:47:20;38.60;;;15.07;;
8159;SDS011;27404;52.398;9.646;2022-12-10T04:49:46;39.77;;;14.70;;
8159;SDS011;27404;52.398;9.646;2022-12-10T04:52:12;41.40;;;14.43;;
8159;SDS011;27404;52.398;9.646;2022-12-10T04:54:39;37.27;;;14.07;;
8159;SDS011;27404;52.398;9.646;2022-12-10T04:57:05;35.83;;;15.03;;
8159;SDS011;27404;52.398;9.646;2022-12-10T04:59:31;44.57;;;15.77;;
8159;SDS011;27404;52.398;9.646;2022-12-10T05:01:57;39.47;;;15.30;;
8159;SDS011;27404;52.398;9.646;2022-12-10T05:04:22;35.13;;;15.00;;
8159;SDS011;27404;52.398;9.646;2022-12-10T05:06:48;37.97;;;15.20;;
8159;SDS011;27404;52.398;9.646;2022-12-10T05:09:14;41.87;;;16.50;;
8159;SDS011;27404;52.398;9.646;2022-12-10T05:11:41;41.57;;;16.00;;
8159;SDS011;27404;52.398;9.646;2022-12-10T05:14:10;39.20;;;15.00;;
8159;SDS011;27404;52.398;9.646;2022-12-10T05:16:36;37.27;;;14.90;;
8159;SDS011;27404;52.398;9.646;2022-12-10T05:19:02;42.07;;;15.13;;
8159;SDS011;27404;52.398;9.646;2022-12-10T05:21:28;45.27;;;16.13;;
8159;SDS011;27404;52.398;9.646;2022-12-10T05:24:15;41.80;;;14.83;;
8159;SDS011;27404;52.398;9.646;2022-12-10T05:26:41;38.37;;;15.60;;
8159;SDS011;27404;52.398;9.646;2022-12-10T05:29:07;35.67;;;13.83;;
8159;SDS011;27404;52.398;9.646;2022-12-10T05:31:33;45.67;;;15.93;;
8159;SDS011;27404;52.398;9.646;2022-12-10T05:33:59;36.63;;;15.27;;
8159;SDS011;27404;52.398;9.646;2022-12-10T05:36:26;40.77;;;15.37;;
8159;SDS011;27404;52.398;9.646;2022-12-10T05:38:54;38.70;;;14.57;;
8159;SDS011;27404;52.398;9.646;2022-12-10T05:41:23;42.07;;;14.73;;
8159;SDS011;27404;52.398;9.646;2022-12-10T05:43:50;43.10;;;15.37;;
8159;SDS011;27404;52.398;9.646;2022-12-10T05:46:17;36.10;;;14.67;;
8159;SDS011;27404;52.398;9.646;2022-12-10T05:48:45;36.60;;;13.93;;
8159;SDS011;27404;52.398;9.646;2022-12-10T05:51:13;39.77;;;15.87;;
8159;SDS011;27404;52.398;9.646;2022-12-10T05:53:40;40.00;;;15.53;;
8159;SDS011;27404;52.398;9.646;2022-12-10T05:56:07;35.67;;;14.90;;
8159;SDS011;27404;52.398;9.646;2022-12-10T05:58:37;35.63;;;13.80;;
8159;SDS011;27404;52.398;9.646;2022-12-10T06:01:07;35.00;;;15.33;;
8159;SDS011;27404;52.398;9.646;2022-12-10T06:03:35;36.23;;;13.93;;
8159;SDS011;27404;52.398;9.646;2022-12-10T06:06:01;33.77;;;15.00;;
8159;SDS011;27404;52.398;9.646;2022-12-10T06:08:26;37.33;;;16.07;;
8159;SDS011;27404;52.398;9.646;2022-12-10T06:10:52;33.17;;;14.13;;
8159;SDS011;27404;52.398;9.646;2022-12-10T06:13:18;33.17;;;13.60;;
8159;SDS011;27404;52.398;9.646;2022-12-10T06:15:44;34.97;;;14.37;;
8159;SDS011;27404;52.398;9.646;2022-12-10T06:18:09;34.63;;;14.90;;
8159;SDS011;27404;52.398;9.646;2022-12-10T06:20:37;33.60;;;13.43;;
8159;SDS011;27404;52.398;9.646;2022-12-10T06:23:03;34.00;;;14.10;;
8159;SDS011;27404;52.398;9.646;2022-12-10T06:25:29;30.67;;;13.37;;
8159;SDS011;27404;52.398;9.646;2022-12-10T06:27:55;27.63;;;12.43;;
8159;SDS011;27404;52.398;9.646;2022-12-10T06:30:20;32.20;;;12.67;;
8159;SDS011;27404;52.398;9.646;2022-12-10T06:32:46;30.23;;;12.70;;
8159;SDS011;27404;52.398;9.646;2022-12-10T06:35:11;28.60;;;13.20;;
8159;SDS011;27404;52.398;9.646;2022-12-10T06:37:37;29.53;;;12.47;;
8159;SDS011;27404;52.398;9.646;2022-12-10T06:40:03;27.50;;;12.30;;
8159;SDS011;27404;52.398;9.646;2022-12-10T06:42:29;25.50;;;13.13;;
8159;SDS011;27404;52.398;9.646;2022-12-10T06:44:55;29.13;;;12.07;;
8159;SDS011;27404;52.398;9.646;2022-12-10T06:47:21;27.70;;;12.73;;
8159;SDS011;27404;52.398;9.646;2022-12-10T06:49:48;34.93;;;13.30;;
8159;SDS011;27404;52.398;9.646;2022-12-10T06:52:13;26.83;;;11.70;;
8159;SDS011;27404;52.398;9.646;2022-12-10T06:54:39;26.07;;;11.97;;
8159;SDS011;27404;52.398;9.646;2022-12-10T06:57:04;29.80;;;12.23;;
8159;SDS011;27404;52.398;9.646;2022-12-10T06:59:30;25.87;;;11.10;;
8159;SDS011;27404;52.398;9.646;2022-12-10T07:01:55;27.10;;;11.37;;
8159;SDS011;27404;52.398;9.646;2022-12-10T07:04:20;30.70;;;13.03;;
8159;SDS011;27404;52.398;9.646;2022-12-10T07:06:46;29.63;;;13.30;;
8159;SDS011;27404;52.398;9.646;2022-12-10T07:09:11;27.17;;;12.53;;
8159;SDS011;27404;52.398;9.646;2022-12-10T07:11:37;31.80;;;13.30;;
8159;SDS011;27404;52.398;9.646;2022-12-10T07:14:02;27.40;;;12.13;;
8159;SDS011;27404;52.398;9.646;2022-12-10T07:16:29;31.23;;;12.83;;
8159;SDS011;27404;52.398;9.646;2022-12-10T07:18:56;24.27;;;12.13;;
8159;SDS011;27404;52.398;9.646;2022-12-10T07:21:24;29.03;;;11.53;;
8159;SDS011;27404;52.398;9.646;2022-12-10T07:23:52;29.63;;;12.60;;
8159;SDS011;27404;52.398;9.646;2022-12-10T07:26:20;26.80;;;12.83;;
8159;SDS011;27404;52.398;9.646;2022-12-10T07:28:47;29.07;;;13.47;;
8159;SDS011;27404;52.398;9.646;2022-12-10T07:31:13;30.10;;;13.00;;
8159;SDS011;27404;52.398;9.646;2022-12-10T07:33:38;35.83;;;13.77;;
8159;SDS011;27404;52.398;9.646;2022-12-10T07:36:13;36.07;;;14.30;;
8159;SDS011;27404;52.398;9.646;2022-12-10T07:38:39;34.00;;;13.70;;
8159;SDS011;27404;52.398;9.646;2022-12-10T07:41:06;33.33;;;13.80;;
8159;SDS011;27404;52.398;9.646;2022-12-10T07:43:37;33.57;;;13.90;;
8159;SDS011;27404;52.398;9.646;2022-12-10T07:46:10;34.23;;;14.00;;
8159;SDS011;27404;52.398;9.646;2022-12-10T07:48:36;34.50;;;15.43;;
8159;SDS011;27404;52.398;9.646;2022-12-10T07:51:03;34.97;;;14.50;;
8159;SDS011;27404;52.398;9.646;2022-12-10T07:53:29;30.60;;;14.20;;
8159;SDS011;27404;52.398;9.646;2022-12-10T07:55:55;31.70;;;14.03;;
8159;SDS011;27404;52.398;9.646;2022-12-10T07:58:20;29.93;;;14.40;;
8159;SDS011;27404;52.398;9.646;2022-12-10T08:00:46;31.73;;;12.93;;
8159;SDS011;27404;52.398;9.646;2022-12-10T08:03:11;28.87;;;12.97;;
8159;SDS011;27404;52.398;9.646;2022-12-10T08:05:36;34.10;;;13.47;;
8159;SDS011;27404;52.398;9.646;2022-12-10T08:08:02;28.33;;;12.83;;
8159;SDS011;27404;52.398;9.646;2022-12-10T08:10:28;29.83;;;12.93;;
8159;SDS011;27404;52.398;9.646;2022-12-10T08:12:53;29.67;;;12.73;;
8159;SDS011;27404;52.398;9.646;2022-12-10T08:15:19;30.43;;;12.40;;
8159;SDS011;27404;52.398;9.646;2022-12-10T08:17:44;30.93;;;13.03;;
8159;SDS011;27404;52.398;9.646;2022-12-10T08:20:10;29.93;;;12.33;;
8159;SDS011;27404;52.398;9.646;2022-12-10T08:22:35;27.27;;;12.67;;
8159;SDS011;27404;52.398;9.646;2022-12-10T08:25:01;30.87;;;13.33;;
8159;SDS011;27404;52.398;9.646;2022-12-10T08:27:27;29.63;;;13.00;;
8159;SDS011;27404;52.398;9.646;2022-12-10T08:29:52;30.60;;;13.40;;
8159;SDS011;27404;52.398;9.646;2022-12-10T08:32:18;30.77;;;12.97;;
8159;SDS011;27404;52.398;9.646;2022-12-10T08:34:44;27.90;;;12.60;;
8159;SDS011;27404;52.398;9.646;2022-12-10T08:37:09;31.27;;;13.87;;
8159;SDS011;27404;52.398;9.646;2022-12-10T08:39:35;27.97;;;12.83;;
8159;SDS011;27404;52.398;9.646;2022-12-10T08:42:00;27.50;;;13.13;;
8159;SDS011;27404;52.398;9.646;2022-12-10T08:44:25;29.93;;;14.00;;
8159;SDS011;27404;52.398;9.646;2022-12-10T08:46:51;29.10;;;13.00;;
8159;SDS011;27404;52.398;9.646;2022-12-10T08:49:16;30.93;;;12.70;;
8159;SDS011;27404;52.398;9.646;2022-12-10T08:51:42;36.43;;;16.57;;
8159;SDS011;27404;52.398;9.646;2022-12-10T08:54:07;36.10;;;15.47;;
8159;SDS011;27404;52.398;9.646;2022-12-10T08:56:33;28.33;;;12.37;;
8159;SDS011;27404;52.398;9.646;2022-12-10T08:58:59;31.77;;;12.90;;
8159;SDS011;27404;52.398;9.646;2022-12-10T09:01:25;29.97;;;13.17;;
8159;SDS011;27404;52.398;9.646;2022-12-10T09:03:50;32.33;;;14.10;;
8159;SDS011;27404;52.398;9.646;2022-12-10T09:06:18;34.63;;;14.00;;
8159;SDS011;27404;52.398;9.646;2022-12-10T09:08:45;34.57;;;14.30;;
8159;SDS011;27404;52.398;9.646;2022-12-10T09:11:20;33.27;;;14.00;;
8159;SDS011;27404;52.398;9.646;2022-12-10T09:13:50;31.60;;;14.10;;
8159;SDS011;27404;52.398;9.646;2022-12-10T09:16:16;28.97;;;13.73;;
8159;SDS011;27404;52.398;9.646;2022-12-10T09:18:42;33.43;;;13.30;;
8159;SDS011;27404;52.398;9.646;2022-12-10T09:21:08;30.53;;;13.73;;
8159;SDS011;27404;52.398;9.646;2022-12-10T09:23:37;34.20;;;14.87;;
8159;SDS011;27404;52.398;9.646;2022-12-10T09:26:07;31.60;;;13.67;;
8159;SDS011;27404;52.398;9.646;2022-12-10T09:28:34;35.80;;;14.20;;
8159;SDS011;27404;52.398;9.646;2022-12-10T09:31:00;35.87;;;14.47;;
8159;SDS011;27404;52.398;9.646;2022-12-10T09:33:27;33.20;;;14.10;;
8159;SDS011;27404;52.398;9.646;2022-12-10T09:35:53;42.33;;;16.70;;
8159;SDS011;27404;52.398;9.646;2022-12-10T09:38:19;35.17;;;15.60;;
8159;SDS011;27404;52.398;9.646;2022-12-10T09:40:50;37.40;;;15.07;;
8159;SDS011;27404;52.398;9.646;2022-12-10T09:43:50;39.10;;;15.87;;
8159;SDS011;27404;52.398;9.646;2022-12-10T09:51:45;51.63;;;20.67;;
8159;SDS011;27404;52.398;9.646;2022-12-10T09:54:15;36.90;;;15.57;;
8159;SDS011;27404;52.398;9.646;2022-12-10T09:56:45;41.97;;;18.53;;
8159;SDS011;27404;52.398;9.646;2022-12-10T09:59:19;47.00;;;20.93;;
8159;SDS011;27404;52.398;9.646;2022-12-10T10:01:58;39.63;;;16.60;;
8159;SDS011;27404;52.398;9.646;2022-12-10T10:04:44;39.37;;;16.30;;
8159;SDS011;27404;52.398;9.646;2022-12-10T10:07:23;35.97;;;15.63;;
8159;SDS011;27404;52.398;9.646;2022-12-10T10:09:53;41.77;;;16.33;;
8159;SDS011;27404;52.398;9.646;2022-12-10T10:12:22;31.40;;;14.43;;
8159;SDS011;27404;52.398;9.646;2022-12-10T10:14:47;32.40;;;16.13;;
8159;SDS011;27404;52.398;9.646;2022-12-10T10:17:19;33.60;;;15.50;;
8159;SDS011;27404;52.398;9.646;2022-12-10T10:19:52;33.97;;;15.47;;
8159;SDS011;27404;52.398;9.646;2022-12-10T10:22:17;35.87;;;14.83;;
8159;SDS011;27404;52.398;9.646;2022-12-10T10:24:44;44.07;;;19.33;;
8159;SDS011;27404;52.398;9.646;2022-12-10T10:27:12;47.23;;;22.20;;
8159;SDS011;27404;52.398;9.646;2022-12-10T10:29:43;42.03;;;21.80;;
8159;SDS011;27404;52.398;9.646;2022-12-10T10:32:12;46.93;;;21.20;;
8159;SDS011;27404;52.398;9.646;2022-12-10T10:34:52;39.50;;;17.80;;
8159;SDS011;27404;52.398;9.646;2022-12-10T10:37:29;34.10;;;15.63;;
8159;SDS011;27404;52.398;9.646;2022-12-10T10:40:04;35.73;;;16.47;;
8159;SDS011;27404;52.398;9.646;2022-12-10T10:42:37;32.43;;;14.37;;
8159;SDS011;27404;52.398;9.646;2022-12-10T10:45:10;34.60;;;16.30;;
8159;SDS011;27404;52.398;9.646;2022-12-10T10:48:14;34.30;;;15.17;;
8159;SDS011;27404;52.398;9.646;2022-12-10T10:51:30;29.47;;;14.00;;
8159;SDS011;27404;52.398;9.646;2022-12-10T10:53:42;29.97;;;14.10;;
8159;SDS011;27404;52.398;9.646;2022-12-10T10:56:28;36.17;;;15.33;;
8159;SDS011;27404;52.398;9.646;2022-12-10T11:01:23;38.93;;;17.60;;
8159;SDS011;27404;52.398;9.646;2022-12-10T11:03:55;32.67;;;16.37;;
8159;SDS011;27404;52.398;9.646;2022-12-10T11:06:23;35.17;;;16.30;;
8159;SDS011;27404;52.398;9.646;2022-12-10T11:08:49;33.37;;;14.20;;
8159;SDS011;27404;52.398;9.646;2022-12-10T11:11:18;35.27;;;15.67;;
8159;SDS011;27404;52.398;9.646;2022-12-10T11:13:45;31.57;;;14.97;;
8159;SDS011;27404;52.398;9.646;2022-12-10T11:18:41;35.07;;;16.60;;
8159;SDS011;27404;52.398;9.646;2022-12-10T11:21:18;32.13;;;14.77;;
8159;SDS011;27404;52.398;9.646;2022-12-10T11:23:47;28.40;;;13.93;;
8159;SDS011;27404;52.398;9.646;2022-12-10T11:51:23;25.77;;;12.27;;
8159;SDS011;27404;52.398;9.646;2022-12-10T11:56:44;29.10;;;13.87;;
8159;SDS011;27404;52.398;9.646;2022-12-10T12:02:07;27.97;;;12.93;;
8159;SDS011;27404;52.398;9.646;2022-12-10T12:13:55;27.83;;;13.10;;
8159;SDS011;27404;52.398;9.646;2022-12-10T12:16:42;30.13;;;14.40;;
8159;SDS011;27404;52.398;9.646;2022-12-10T12:21:44;29.40;;;13.20;;
8159;SDS011;27404;52.398;9.646;2022-12-10T12:24:20;29.93;;;12.77;;
8159;SDS011;27404;52.398;9.646;2022-12-10T12:27:11;27.03;;;13.20;;
8159;SDS011;27404;52.398;9.646;2022-12-10T12:29:48;31.67;;;13.23;;
8159;SDS011;27404;52.398;9.646;2022-12-10T12:32:27;29.63;;;14.97;;
8159;SDS011;27404;52.398;9.646;2022-12-10T12:37:36;28.80;;;13.33;;
8159;SDS011;27404;52.398;9.646;2022-12-10T12:40:13;28.83;;;13.53;;
8159;SDS011;27404;52.398;9.646;2022-12-10T12:42:55;27.93;;;13.07;;
8159;SDS011;27404;52.398;9.646;2022-12-10T12:45:34;29.43;;;13.07;;
8159;SDS011;27404;52.398;9.646;2022-12-10T12:51:33;31.77;;;13.47;;
8159;SDS011;27404;52.398;9.646;2022-12-10T12:53:44;33.40;;;14.20;;
8159;SDS011;27404;52.398;9.646;2022-12-10T12:58:48;39.30;;;15.73;;
8159;SDS011;27404;52.398;9.646;2022-12-10T13:04:14;91.40;;;36.57;;
8159;SDS011;27404;52.398;9.646;2022-12-10T13:06:40;45.90;;;20.17;;
8159;SDS011;27404;52.398;9.646;2022-12-10T13:12:26;100.67;;;38.00;;
8159;SDS011;27404;52.398;9.646;2022-12-10T13:17:02;44.47;;;21.20;;
8159;SDS011;27404;52.398;9.646;2022-12-10T13:19:51;30.40;;;14.10;;
8159;SDS011;27404;52.398;9.646;2022-12-10T13:25:05;30.03;;;14.13;;
8159;SDS011;27404;52.398;9.646;2022-12-10T13:27:32;31.53;;;16.30;;
8159;SDS011;27404;52.398;9.646;2022-12-10T13:30:01;35.10;;;15.93;;
8159;SDS011;27404;52.398;9.646;2022-12-10T13:37:32;35.40;;;15.87;;
8159;SDS011;27404;52.398;9.646;2022-12-10T13:43:36;31.90;;;15.20;;
8159;SDS011;27404;52.398;9.646;2022-12-10T13:46:27;30.13;;;13.57;;
8159;SDS011;27404;52.398;9.646;2022-12-10T13:49:00;31.27;;;13.60;;
8159;SDS011;27404;52.398;9.646;2022-12-10T13:51:45;32.67;;;14.43;;
8159;SDS011;27404;52.398;9.646;2022-12-10T14:07:50;30.20;;;15.10;;
8159;SDS011;27404;52.398;9.646;2022-12-10T14:10:19;29.20;;;14.10;;
8159;SDS011;27404;52.398;9.646;2022-12-10T14:12:51;32.23;;;14.57;;
8159;SDS011;27404;52.398;9.646;2022-12-10T14:15:19;28.73;;;13.63;;
8159;SDS011;27404;52.398;9.646;2022-12-10T14:17:49;31.60;;;16.23;;
8159;SDS011;27404;52.398;9.646;2022-12-10T14:20:18;31.93;;;15.87;;
8159;SDS011;27404;52.398;9.646;2022-12-10T14:22:50;29.37;;;14.37;;
8159;SDS011;27404;52.398;9.646;2022-12-10T14:25:21;28.03;;;14.23;;
8159;SDS011;27404;52.398;9.646;2022-12-10T14:27:51;21.13;;;10.00;;
8159;SDS011;27404;52.398;9.646;2022-12-10T14:30:22;17.03;;;8.00;;
8159;SDS011;27404;52.398;9.646;2022-12-10T14:32:53;16.00;;;7.90;;
8159;SDS011;27404;52.398;9.646;2022-12-10T14:35:25;15.97;;;8.43;;
8159;SDS011;27404;52.398;9.646;2022-12-10T14:37:53;22.33;;;9.70;;
8159;SDS011;27404;52.398;9.646;2022-12-10T14:40:29;18.33;;;9.27;;
8159;SDS011;27404;52.398;9.646;2022-12-10T14:43:04;15.47;;;7.73;;
8159;SDS011;27404;52.398;9.646;2022-12-10T14:45:40;24.70;;;11.37;;
8159;SDS011;27404;52.398;9.646;2022-12-10T14:48:13;26.97;;;12.80;;
8159;SDS011;27404;52.398;9.646;2022-12-10T14:50:41;26.33;;;12.43;;
8159;SDS011;27404;52.398;9.646;2022-12-10T14:53:11;31.67;;;14.53;;
8159;SDS011;27404;52.398;9.646;2022-12-10T14:55:49;34.33;;;15.03;;
8159;SDS011;27404;52.398;9.646;2022-12-10T14:58:23;34.70;;;16.33;;
8159;SDS011;27404;52.398;9.646;2022-12-10T15:00:58;29.57;;;14.47;;
8159;SDS011;27404;52.398;9.646;2022-12-10T15:03:30;30.30;;;14.60;;
8159;SDS011;27404;52.398;9.646;2022-12-10T15:06:01;29.67;;;14.30;;
8159;SDS011;27404;52.398;9.646;2022-12-10T15:08:32;28.40;;;14.73;;
8159;SDS011;27404;52.398;9.646;2022-12-10T15:10:58;30.53;;;13.67;;
8159;SDS011;27404;52.398;9.646;2022-12-10T15:13:34;30.43;;;13.10;;
8159;SDS011;27404;52.398;9.646;2022-12-10T15:16:04;29.10;;;13.10;;
8159;SDS011;27404;52.398;9.646;2022-12-10T15:18:31;30.73;;;14.00;;
8159;SDS011;27404;52.398;9.646;2022-12-10T15:21:08;32.43;;;16.60;;
8159;SDS011;27404;52.398;9.646;2022-12-10T15:23:38;31.57;;;16.10;;
8159;SDS011;27404;52.398;9.646;2022-12-10T15:28:50;28.30;;;13.60;;
8159;SDS011;27404;52.398;9.646;2022-12-10T15:33:55;32.00;;;14.47;;
8159;SDS011;27404;52.398;9.646;2022-12-10T15:39:22;31.03;;;13.77;;
8159;SDS011;27404;52.398;9.646;2022-12-10T15:41:55;34.57;;;15.20;;
8159;SDS011;27404;52.398;9.646;2022-12-10T15:44:26;29.17;;;14.47;;
8159;SDS011;27404;52.398;9.646;2022-12-10T15:49:43;48.30;;;21.03;;
8159;SDS011;27404;52.398;9.646;2022-12-10T15:52:16;52.53;;;21.63;;
8159;SDS011;27404;52.398;9.646;2022-12-10T15:54:44;42.33;;;18.87;;
8159;SDS011;27404;52.398;9.646;2022-12-10T15:57:12;44.73;;;18.23;;
8159;SDS011;27404;52.398;9.646;2022-12-10T15:59:40;45.47;;;19.63;;
8159;SDS011;27404;52.398;9.646;2022-12-10T16:04:59;27.10;;;13.07;;
8159;SDS011;27404;52.398;9.646;2022-12-10T16:07:25;31.10;;;13.77;;
8159;SDS011;27404;52.398;9.646;2022-12-10T16:09:50;30.53;;;14.07;;
8159;SDS011;27404;52.398;9.646;2022-12-10T16:12:16;35.87;;;16.03;;
8159;SDS011;27404;52.398;9.646;2022-12-10T16:14:50;46.03;;;19.30;;
8159;SDS011;27404;52.398;9.646;2022-12-10T16:17:19;49.27;;;21.13;;
8159;SDS011;27404;52.398;9.646;2022-12-10T16:19:44;51.13;;;20.47;;
8159;SDS011;27404;52.398;9.646;2022-12-10T16:22:10;35.60;;;16.10;;
8159;SDS011;27404;52.398;9.646;2022-12-10T16:24:35;35.70;;;15.73;;
8159;SDS011;27404;52.398;9.646;2022-12-10T16:27:04;34.07;;;15.53;;
8159;SDS011;27404;52.398;9.646;2022-12-10T16:29:36;28.80;;;13.60;;
8159;SDS011;27404;52.398;9.646;2022-12-10T16:32:01;54.33;;;19.57;;
8159;SDS011;27404;52.398;9.646;2022-12-10T16:34:26;33.00;;;14.57;;
8159;SDS011;27404;52.398;9.646;2022-12-10T16:36:52;32.27;;;14.53;;
8159;SDS011;27404;52.398;9.646;2022-12-10T16:39:17;29.80;;;14.53;;
8159;SDS011;27404;52.398;9.646;2022-12-10T16:41:43;28.30;;;14.73;;
8159;SDS011;27404;52.398;9.646;2022-12-10T16:44:08;27.27;;;14.07;;
8159;SDS011;27404;52.398;9.646;2022-12-10T16:46:34;26.87;;;13.77;;
8159;SDS011;27404;52.398;9.646;2022-12-10T16:49:00;26.57;;;14.00;;
8159;SDS011;27404;52.398;9.646;2022-12-10T16:51:26;27.53;;;12.23;;